Time;durP1;ratioP1;P1;durP2;ratioP2;P2;SDS_P1;SDS_P2;PMS_P1;PMS_P2;Temp;Humidity;BMP_temperature;BMP_pressure;BME280_temperature;BME280_humidity;BME280_pressure;Samples;Min_cycle;Max_cycle;Signal;HPM_P1;HPM_P2
2021/04/15 00:01:42;;;;;;;6.67;5.22;;;;;;;-0.37;87.57;92805.56;1846181;77;21250;-75
2021/04/15 00:04:11;;;;;;;6.10;4.78;;;;;;;-0.39;87.70;92801.67;1846132;77;21100;-75
2021/04/15 00:06:49;;;;;;;6.12;4.58;;;;;;;-0.39;87.75;92801.67;1847291;76;21132;-74
2021/04/15 00:10:01;;;;;;;5.60;3.95;;;;;;;-0.40;87.95;92794.78;1846609;77;21127;-76
2021/04/15 00:12:30;;;;;;;5.60;4.57;;;;;;;-0.42;87.98;92796.44;1845101;77;21787;-75
2021/04/15 00:14:59;;;;;;;7.37;5.20;;;;;;;-0.43;87.95;92795.46;1844967;77;21171;-75
2021/04/15 00:17:27;;;;;;;7.17;4.72;;;;;;;-0.44;87.90;92794.69;1844853;77;21192;-75
2021/04/15 00:19:54;;;;;;;5.90;4.70;;;;;;;-0.41;87.95;92795.91;1845883;77;21104;-75
2021/04/15 00:22:22;;;;;;;8.93;6.15;;;;;;;-0.42;87.85;92793.77;1848411;77;21048;-76
2021/04/15 00:24:49;;;;;;;6.78;4.90;;;;;;;-0.40;87.94;92794.78;1847575;76;21354;-76
2021/04/15 00:27:20;;;;;;;5.37;4.40;;;;;;;-0.39;87.95;92794.43;1846446;77;21060;-75
2021/04/15 00:29:48;;;;;;;5.60;4.33;;;;;;;-0.36;87.83;92796.42;1846578;77;21033;-75
2021/04/15 00:32:17;;;;;;;5.42;4.67;;;;;;;-0.38;87.77;92790.63;1846732;77;21029;-76
2021/04/15 00:34:44;;;;;;;4.35;3.75;;;;;;;-0.38;87.74;92791.20;1846545;77;21041;-75
2021/04/15 00:37:15;;;;;;;4.25;3.85;;;;;;;-0.40;87.74;92792.88;1846468;77;21365;-75
2021/04/15 00:39:43;;;;;;;3.92;3.50;;;;;;;-0.38;87.81;92797.87;1846512;77;21549;-76
2021/04/15 00:42:11;;;;;;;5.12;3.50;;;;;;;-0.38;87.70;92797.87;1846365;77;21104;-76
2021/04/15 00:44:38;;;;;;;5.58;3.60;;;;;;;-0.40;87.72;92796.89;1846470;77;21055;-76
2021/04/15 00:47:09;;;;;;;4.45;3.20;;;;;;;-0.39;87.80;92798.44;1846423;77;21040;-75
2021/04/15 00:49:44;;;;;;;4.65;3.95;;;;;;;-0.39;87.68;92794.99;1846537;77;21486;-75
2021/04/15 00:52:17;;;;;;;4.08;3.65;;;;;;;-0.40;87.62;92788.88;1849401;77;21065;-75
2021/04/15 00:54:56;;;;;;;3.47;3.17;;;;;;;-0.41;87.55;92785.22;1842475;77;21040;-75
2021/04/15 00:57:31;;;;;;;3.25;2.95;;;;;;;-0.45;87.35;92787.00;1846289;76;21013;-75
2021/04/15 01:00:01;;;;;;;3.45;3.17;;;;;;;-0.47;87.32;92795.36;1846375;77;21207;-75
2021/04/15 01:02:29;;;;;;;3.60;3.17;;;;;;;-0.49;87.43;92789.57;1846432;77;21601;-75
2021/04/15 01:04:59;;;;;;;3.65;3.27;;;;;;;-0.51;87.32;92781.91;1846341;77;21057;-74
2021/04/15 01:07:29;;;;;;;3.70;3.37;;;;;;;-0.56;87.35;92783.50;1815144;77;21167;-75
2021/04/15 01:09:58;;;;;;;4.22;3.50;;;;;;;-0.60;87.28;92785.30;1846317;77;21048;-75
2021/04/15 01:12:36;;;;;;;4.28;3.20;;;;;;;-0.63;87.50;92790.55;1846616;77;21048;-75
2021/04/15 01:15:20;;;;;;;4.28;3.50;;;;;;;-0.63;87.48;92782.53;1846451;77;21795;-76
2021/04/15 01:18:03;;;;;;;3.15;2.85;;;;;;;-0.63;87.44;92789.98;1846267;77;21052;-75
2021/04/15 01:20:45;;;;;;;3.83;3.27;;;;;;;-0.64;87.38;92785.77;1847326;76;21128;-75
2021/04/15 01:23:37;;;;;;;3.37;3.08;;;;;;;-0.67;87.40;92787.00;1926161;74;21424;-75
2021/04/15 01:26:39;;;;;;;4.50;2.90;;;;;;;-0.68;87.56;92784.86;1850223;74;21084;-75
2021/04/15 01:29:26;;;;;;;3.60;3.30;;;;;;;-0.68;87.65;92782.76;1882446;75;21241;-75
2021/04/15 01:32:08;;;;;;;3.65;3.35;;;;;;;-0.69;87.63;92785.98;1850704;74;21507;-74
2021/04/15 01:34:57;;;;;;;3.80;3.50;;;;;;;-0.70;87.84;92783.67;1862104;75;21510;-75
2021/04/15 01:37:49;;;;;;;3.83;3.53;;;;;;;-0.70;88.02;92777.77;1838669;76;21056;-75
2021/04/15 01:40:25;;;;;;;3.52;3.20;;;;;;;-0.68;88.10;92780.09;1851930;76;21143;-75
2021/04/15 01:43:20;;;;;;;5.30;4.05;;;;;;;-0.65;88.04;92782.08;1855390;76;21174;-75
2021/04/15 01:45:51;;;;;;;3.72;3.25;;;;;;;-0.66;87.94;92785.31;1811605;77;21108;-75
2021/04/15 01:48:26;;;;;;;4.37;3.50;;;;;;;-0.71;87.97;92784.23;1825812;78;21218;-75
2021/04/15 01:50:56;;;;;;;4.37;3.80;;;;;;;-0.74;88.04;92780.34;1827997;78;21527;-75
2021/04/15 01:53:33;;;;;;;7.50;4.83;;;;;;;-0.77;88.03;92782.91;1754204;81;21059;-75
2021/04/15 01:56:17;;;;;;;5.22;4.10;;;;;;;-0.82;88.18;92771.92;1867626;75;21369;-75
2021/04/15 01:58:49;;;;;;;6.40;5.20;;;;;;;-0.80;88.32;92775.57;1859810;76;21107;-75
2021/04/15 02:01:19;;;;;;;4.62;4.10;;;;;;;-0.79;88.24;92780.59;1832424;77;21113;-75
2021/04/15 02:03:53;;;;;;;5.13;4.63;;;;;;;-0.81;88.30;92774.02;1809133;79;21034;-75
2021/04/15 02:06:26;;;;;;;5.00;4.47;;;;;;;-0.83;88.27;92774.91;1796838;78;21043;-75
2021/04/15 02:08:58;;;;;;;6.58;4.60;;;;;;;-0.89;88.33;92766.94;1810160;79;22103;-75
2021/04/15 02:11:48;;;;;;;8.58;5.83;;;;;;;-0.92;88.52;92775.63;1875694;76;21120;-75
2021/04/15 02:14:22;;;;;;;8.80;6.90;;;;;;;-0.97;88.71;92768.63;1810785;76;21046;-75
2021/04/15 02:16:52;;;;;;;8.88;6.17;;;;;;;-0.97;88.94;92778.53;1854252;76;21147;-75
2021/04/15 02:19:40;;;;;;;9.10;5.97;;;;;;;-0.97;89.04;92777.20;1842583;76;21100;-76
2021/04/15 02:22:22;;;;;;;8.33;5.67;;;;;;;-0.95;89.21;92774.39;1829983;76;21657;-76
2021/04/15 02:25:08;;;;;;;7.47;5.73;;;;;;;-0.94;89.13;92772.50;1859258;76;21156;-75
2021/04/15 02:27:55;;;;;;;6.03;4.73;;;;;;;-0.94;89.26;92771.97;1807749;76;21482;-76
2021/04/15 02:30:29;;;;;;;6.30;5.10;;;;;;;-0.89;89.25;92766.94;1874923;76;21119;-75
2021/04/15 02:33:08;;;;;;;7.35;6.17;;;;;;;-0.87;89.08;92768.13;1821939;78;21052;-75
2021/04/15 02:35:47;;;;;;;7.85;5.65;;;;;;;-0.92;88.93;92764.38;1891645;75;21170;-75
2021/04/15 02:38:18;;;;;;;6.47;5.40;;;;;;;-0.95;88.95;92766.39;1832705;75;21107;-75
2021/04/15 02:40:50;;;;;;;6.27;5.67;;;;;;;-1.02;89.04;92766.19;1846812;76;21091;-75
2021/04/15 02:43:25;;;;;;;7.70;5.13;;;;;;;-1.07;89.15;92769.88;1847140;76;21050;-76
2021/04/15 02:45:55;;;;;;;7.23;5.30;;;;;;;-1.09;89.31;92774.78;1821965;78;21095;-76
2021/04/15 02:48:28;;;;;;;7.23;5.50;;;;;;;-1.12;89.39;92772.78;1853715;77;21136;-76
2021/04/15 02:51:02;;;;;;;6.65;5.95;;;;;;;-1.12;89.68;92768.78;1791800;80;21064;-76
2021/04/15 02:53:54;;;;;;;7.33;6.50;;;;;;;-1.06;89.78;92771.98;1887071;75;21102;-75
2021/04/15 02:56:43;;;;;;;8.98;7.30;;;;;;;-1.04;89.39;92780.44;1855055;75;21127;-76
2021/04/15 02:59:15;;;;;;;9.23;7.05;;;;;;;-1.07;89.21;92781.11;1863821;76;21091;-76
2021/04/15 03:01:47;;;;;;;6.92;6.05;;;;;;;-1.08;89.40;92787.00;1834981;76;21678;-76
2021/04/15 03:04:18;;;;;;;9.35;7.15;;;;;;;-1.04;89.50;92778.54;1778521;78;21123;-76
2021/04/15 03:06:45;;;;;;;11.43;8.00;;;;;;;-1.06;89.03;92779.42;1811884;78;21528;-76
2021/04/15 03:09:13;;;;;;;10.20;7.83;;;;;;;-1.08;88.92;92782.23;1755768;80;21137;-75
2021/04/15 03:11:54;;;;;;;12.23;7.55;;;;;;;-1.11;89.14;92780.23;1810805;78;21167;-75
2021/04/15 03:14:42;;;;;;;10.82;7.47;;;;;;;-1.11;89.19;92781.56;1878900;75;22228;-75
2021/04/15 03:17:10;;;;;;;10.70;6.62;;;;;;;-1.12;89.13;92784.80;1820407;75;21154;-75
2021/04/15 03:19:44;;;;;;;7.42;5.95;;;;;;;-1.09;89.32;92783.32;1834412;77;21147;-75
2021/04/15 03:22:20;;;;;;;6.92;5.30;;;;;;;-1.07;89.50;92780.55;1849922;77;21104;-75
2021/04/15 03:24:52;;;;;;;7.80;5.87;;;;;;;-1.06;89.44;92786.66;1828456;76;21202;-74
2021/04/15 03:27:26;;;;;;;7.58;6.20;;;;;;;-1.05;89.44;92781.56;1879186;76;21345;-74
2021/04/15 03:30:27;;;;;;;9.50;6.57;;;;;;;-1.05;89.66;92786.90;1813499;79;21126;-74
2021/04/15 03:33:11;;;;;;;8.70;5.90;;;;;;;-1.02;89.76;92787.53;1843356;77;21038;-74
2021/04/15 03:35:50;;;;;;;8.35;6.92;;;;;;;-1.01;89.69;92789.88;1875606;76;21096;-74
2021/04/15 03:38:32;;;;;;;8.40;6.47;;;;;;;-1.01;89.79;92791.22;1820356;76;21069;-75
2021/04/15 03:41:14;;;;;;;8.15;6.05;;;;;;;-0.99;89.82;92788.20;1818737;79;21373;-77
2021/04/15 03:43:46;;;;;;;8.88;5.67;;;;;;;-0.97;89.93;92789.21;1852746;77;21104;-77
2021/04/15 03:46:28;;;;;;;11.25;7.05;;;;;;;-0.96;89.81;92800.09;1818696;78;21491;-76
2021/04/15 03:49:07;;;;;;;8.05;5.67;;;;;;;-0.96;89.90;92790.20;1892961;75;21131;-76
2021/04/15 03:51:58;;;;;;;7.40;5.75;;;;;;;-0.94;89.81;92795.98;1832533;75;21060;-77
2021/04/15 03:54:36;;;;;;;7.87;5.40;;;;;;;-0.93;89.87;92791.42;1818778;79;22166;-77
2021/04/15 03:57:04;;;;;;;6.75;5.60;;;;;;;-0.89;89.91;92796.30;1843201;77;21132;-76
2021/04/15 04:00:00;;;;;;;7.95;5.85;;;;;;;-0.88;89.83;92798.63;1840933;77;21116;-75
2021/04/15 04:02:35;;;;;;;8.03;5.80;;;;;;;-0.89;89.79;92795.73;1848553;77;21204;-75
2021/04/15 04:05:22;;;;;;;8.30;6.25;;;;;;;-0.86;89.87;92796.97;1763030;77;27129;-75
2021/04/15 04:07:57;;;;;;;8.23;6.12;;;;;;;-0.85;89.87;92799.84;1840619;77;22071;-77
2021/04/15 04:10:39;;;;;;;7.50;5.75;;;;;;;-0.86;89.81;92803.08;1747740;81;21099;-77
2021/04/15 04:13:16;;;;;;;6.97;5.30;;;;;;;-0.86;89.81;92812.42;1837500;78;21123;-76
2021/04/15 04:15:50;;;;;;;6.92;6.05;;;;;;;-0.85;89.84;92813.97;1901701;75;21414;-77
2021/04/15 04:18:25;;;;;;;9.70;6.55;;;;;;;-0.85;89.87;92814.53;1869768;75;20995;-75
2021/04/15 04:20:57;;;;;;;6.87;5.55;;;;;;;-0.83;89.79;92813.62;1822977;78;21191;-75
2021/04/15 04:23:38;;;;;;;9.05;5.80;;;;;;;-0.82;89.81;92819.20;1843029;77;21052;-75
2021/04/15 04:26:14;;;;;;;8.43;5.40;;;;;;;-0.80;89.74;92816.39;1850229;76;21669;-75
2021/04/15 04:28:46;;;;;;;7.72;5.17;;;;;;;-0.78;89.68;92818.17;1882578;76;21584;-75
2021/04/15 04:31:22;;;;;;;8.10;5.70;;;;;;;-0.74;89.65;92823.05;1809751;79;21118;-75
2021/04/15 04:33:52;;;;;;;7.20;5.28;;;;;;;-0.74;89.47;92815.61;1809641;78;21203;-75
2021/04/15 04:36:25;;;;;;;7.58;6.12;;;;;;;-0.71;89.48;92827.48;1800792;78;21201;-76
2021/04/15 04:38:55;;;;;;;7.37;5.58;;;;;;;-0.70;89.51;92827.72;1806620;78;21179;-75
2021/04/15 04:41:51;;;;;;;9.88;7.00;;;;;;;-0.68;89.45;92826.81;1794261;76;21063;-75
2021/04/15 04:44:30;;;;;;;7.60;6.08;;;;;;;-0.65;89.39;92822.91;1873229;76;21468;-76
2021/04/15 04:47:09;;;;;;;6.35;5.47;;;;;;;-0.63;89.30;92826.03;1815526;78;21424;-75
2021/04/15 04:49:44;;;;;;;6.25;5.30;;;;;;;-0.59;89.20;92831.47;1799989;79;21063;-75
2021/04/15 04:52:23;;;;;;;6.10;5.50;;;;;;;-0.60;89.19;92823.22;1864340;76;21258;-75
2021/04/15 04:54:51;;;;;;;7.35;5.45;;;;;;;-0.56;89.23;92833.47;1794906;76;21120;-75
2021/04/15 04:57:35;;;;;;;7.25;5.30;;;;;;;-0.53;89.01;92826.89;1817291;76;21044;-75
2021/04/15 05:00:11;;;;;;;5.60;4.60;;;;;;;-0.50;88.82;92830.76;1827459;76;21354;-75
2021/04/15 05:02:39;;;;;;;5.42;4.72;;;;;;;-0.50;88.61;92826.19;1804849;76;21048;-75
2021/04/15 05:05:10;;;;;;;6.78;5.05;;;;;;;-0.49;88.71;92828.30;1898604;75;21081;-75
2021/04/15 05:07:38;;;;;;;8.18;6.20;;;;;;;-0.45;88.64;92828.40;1790187;78;21064;-75
2021/04/15 05:10:07;;;;;;;6.47;5.40;;;;;;;-0.41;88.37;92830.08;1859224;76;21028;-75
2021/04/15 05:12:35;;;;;;;6.90;4.83;;;;;;;-0.38;87.95;92825.92;1831867;76;21181;-73
2021/04/15 05:15:03;;;;;;;4.85;4.35;;;;;;;-0.33;87.58;92824.36;1798402;79;21126;-75
2021/04/15 05:17:36;;;;;;;7.08;4.90;;;;;;;-0.31;87.52;92818.88;1804204;79;21484;-75
2021/04/15 05:20:10;;;;;;;5.25;4.40;;;;;;;-0.25;87.51;92824.77;1804281;79;21053;-75
2021/04/15 05:22:54;;;;;;;8.18;5.20;;;;;;;-0.22;87.62;92828.09;1802780;79;21060;-75
2021/04/15 05:25:54;;;;;;;5.55;4.70;;;;;;;-0.21;87.61;92826.97;1839892;76;22168;-75
2021/04/15 05:28:22;;;;;;;9.18;5.80;;;;;;;-0.16;87.53;92826.71;1776566;76;21156;-76
2021/04/15 05:30:50;;;;;;;7.83;5.55;;;;;;;-0.13;87.37;92831.38;1820469;76;21092;-75
2021/04/15 05:33:22;;;;;;;12.90;6.87;;;;;;;-0.14;87.35;92825.05;1820175;76;21515;-75
2021/04/15 05:36:19;;;;;;;9.40;6.70;;;;;;;-0.16;87.52;92826.71;1787912;78;21142;-76
2021/04/15 05:38:54;;;;;;;11.12;7.30;;;;;;;-0.16;87.59;92834.73;1815072;78;21531;-76
2021/04/15 05:41:33;;;;;;;12.50;8.23;;;;;;;-0.16;87.60;92831.28;1811461;78;21108;-75
2021/04/15 05:44:11;;;;;;;10.75;6.70;;;;;;;-0.17;87.54;92829.73;1794493;79;21563;-76
2021/04/15 05:46:43;;;;;;;11.30;7.47;;;;;;;-0.18;87.54;92834.88;1791346;79;21107;-76
2021/04/15 05:49:19;;;;;;;10.98;7.12;;;;;;;-0.14;87.45;92836.52;1810658;77;21155;-77
2021/04/15 05:52:13;;;;;;;11.03;5.50;;;;;;;-0.12;87.25;92838.27;1792561;79;21362;-76
2021/04/15 05:54:41;;;;;;;8.15;6.03;;;;;;;-0.15;87.32;92836.30;1779318;80;21157;-75
2021/04/15 05:57:11;;;;;;;9.53;6.85;;;;;;;-0.15;87.41;92837.64;1801401;79;21627;-76
2021/04/15 06:00:04;;;;;;;15.15;9.10;;;;;;;-0.15;87.49;92838.98;1800361;79;21251;-76
2021/04/15 06:02:57;;;;;;;15.38;10.58;;;;;;;-0.15;87.60;92835.50;1765486;80;21171;-78
2021/04/15 06:05:36;;;;;;;25.68;18.17;;;;;;;-0.14;87.64;92834.41;1697464;83;21371;-77
2021/04/15 06:08:07;;;;;;;22.40;16.25;;;;;;;-0.12;87.57;92828.92;1764212;80;21103;-79
2021/04/15 06:10:37;;;;;;;20.32;13.53;;;;;;;-0.06;87.72;92829.45;1815885;78;21114;-78
2021/04/15 06:13:29;;;;;;;19.25;12.82;;;;;;;0.01;87.60;92833.66;1834875;78;21164;-77
2021/04/15 06:16:02;;;;;;;13.68;9.90;;;;;;;0.07;87.39;92832.27;1802897;77;21503;-80
2021/04/15 06:18:53;;;;;;;12.35;9.35;;;;;;;0.08;87.05;92828.49;1810704;77;21399;-81
2021/04/15 06:21:26;;;;;;;14.50;10.00;;;;;;;0.11;87.04;92832.36;1847169;77;21554;-79
2021/04/15 06:23:58;;;;;;;12.78;8.23;;;;;;;0.14;86.92;92829.77;1811068;79;21492;-76
2021/04/15 06:26:34;;;;;;;9.30;5.95;;;;;;;0.17;86.71;92825.65;1776501;76;21096;-81
2021/04/15 06:29:06;;;;;;;7.67;6.03;;;;;;;0.20;86.65;92823.06;1846887;77;21052;-79
2021/04/15 06:31:42;;;;;;;8.15;5.58;;;;;;;0.29;86.47;92832.81;1847183;77;21414;-79
2021/04/15 06:34:11;;;;;;;11.70;7.25;;;;;;;0.35;86.13;92828.77;1798573;77;21238;-78
2021/04/15 06:37:06;;;;;;;13.35;8.05;;;;;;;0.40;85.73;92833.84;1781123;78;21570;-82
2021/04/15 06:39:49;;;;;;;11.35;5.62;;;;;;;0.41;85.50;92829.48;1809848;79;21183;-76
2021/04/15 06:42:59;;;;;;;11.97;6.25;;;;;;;0.46;85.11;92834.59;1848735;76;21146;-78
2021/04/15 06:45:53;;;;;;;10.65;6.10;;;;;;;0.51;84.58;92828.20;1816541;79;22439;-78
2021/04/15 06:48:43;;;;;;;8.65;4.75;;;;;;;0.54;84.04;92826.73;1794724;77;26563;-82
2021/04/15 06:51:37;;;;;;;6.92;5.35;;;;;;;0.54;83.53;92834.77;1844267;77;21045;-81
2021/04/15 06:54:30;;;;;;;9.18;5.95;;;;;;;0.57;83.18;92830.06;1844176;77;21125;-79
2021/04/15 06:57:04;;;;;;;7.80;4.80;;;;;;;0.65;83.14;92832.55;1844411;77;21237;-83
2021/04/15 06:59:35;;;;;;;7.42;4.72;;;;;;;0.73;82.84;92827.58;1844443;77;21320;-84
2021/04/15 07:02:31;;;;;;;7.62;4.92;;;;;;;0.76;82.34;92824.00;1777550;80;21085;-83
2021/04/15 07:05:12;;;;;;;7.30;4.50;;;;;;;0.81;82.50;92826.41;1843825;77;21185;-80
2021/04/15 07:07:43;;;;;;;17.75;7.35;;;;;;;0.87;82.42;92826.36;1844656;77;21042;-81
2021/04/15 07:10:29;;;;;;;12.88;6.53;;;;;;;0.92;82.38;92822.84;1844659;77;21061;-80
2021/04/15 07:13:40;;;;;;;12.65;6.25;;;;;;;0.98;82.50;92824.70;1844720;77;21560;-79
2021/04/15 07:16:51;;;;;;;18.37;8.33;;;;;;;1.06;82.52;92828.31;1844404;77;21208;-82
2021/04/15 07:19:46;;;;;;;21.05;10.13;;;;;;;1.12;82.27;92823.65;1844152;77;21478;-82
2021/04/15 07:22:39;;;;;;;15.30;7.28;;;;;;;1.23;82.87;92827.13;1844047;77;21121;-83
2021/04/15 07:25:52;;;;;;;16.35;8.63;;;;;;;1.40;83.23;92827.50;1815176;76;21137;-81
2021/04/15 07:28:46;;;;;;;13.15;7.35;;;;;;;1.58;83.10;92822.52;1843046;77;21125;-80
2021/04/15 07:31:44;;;;;;;11.45;6.60;;;;;;;1.79;82.77;92829.41;1809919;77;21142;-80
2021/04/15 07:34:57;;;;;;;8.40;4.97;;;;;;;1.96;82.30;92824.95;1788635;79;21486;-81
2021/04/15 07:38:04;;;;;;;8.18;5.25;;;;;;;2.09;81.29;92827.67;1797371;77;21068;-79
2021/04/15 07:41:07;;;;;;;7.40;4.15;;;;;;;2.26;80.69;92826.45;1854097;77;21140;-82
2021/04/15 07:43:41;;;;;;;5.12;3.52;;;;;;;2.42;80.82;92831.13;1798513;77;21433;-82
2021/04/15 07:46:29;;;;;;;5.03;3.60;;;;;;;2.59;80.82;92825.06;1815569;77;21179;-80
2021/04/15 07:49:30;;;;;;;6.00;3.50;;;;;;;2.77;79.81;92830.15;1805688;77;21168;-79
2021/04/15 07:52:12;;;;;;;4.78;3.22;;;;;;;2.92;78.58;92825.20;1845699;77;21559;-79
2021/04/15 07:55:22;;;;;;;3.95;2.92;;;;;;;3.07;78.84;92823.50;1847582;77;21077;-83
2021/04/15 07:58:12;;;;;;;3.90;2.80;;;;;;;3.16;76.87;92820.58;1828349;77;21433;-81
2021/04/15 08:00:57;;;;;;;4.12;2.92;;;;;;;3.29;77.00;92827.84;1847466;77;21200;-79
2021/04/15 08:04:04;;;;;;;2.50;2.25;;;;;;;3.42;78.02;92827.81;1843324;77;21174;-80
2021/04/15 08:06:46;;;;;;;2.10;1.87;;;;;;;3.53;76.15;92827.38;1820686;78;21476;-81
2021/04/15 08:09:52;;;;;;;1.95;1.72;;;;;;;3.61;75.93;92829.05;1827518;78;21159;-81
2021/04/15 08:13:14;;;;;;;1.50;1.40;;;;;;;3.72;76.18;92831.07;1783036;79;21250;-83
2021/04/15 08:16:37;;;;;;;1.70;1.57;;;;;;;3.75;74.12;92827.08;1794838;79;21165;-81
2021/04/15 08:19:56;;;;;;;1.62;1.50;;;;;;;3.78;74.56;92826.36;1803801;77;21159;-79
2021/04/15 08:22:36;;;;;;;;;;;;;;;3.95;74.47;92824.23;1846013;77;21036;-81
2021/04/15 08:25:49;;;;;;;1.50;1.40;;;;;;;4.16;74.14;92823.70;1845167;76;20516;-80
2021/04/15 08:28:36;;;;;;;1.98;1.62;;;;;;;4.37;73.89;92828.73;1837377;77;21539;-80
2021/04/15 08:31:47;;;;;;;1.20;1.10;;;;;;;4.57;73.01;92823.91;1844214;77;21159;-85
2021/04/15 08:35:14;;;;;;;1.77;1.30;;;;;;;4.57;73.01;92823.91;1844546;77;21155;-83
2021/04/15 08:38:09;;;;;;;2.62;1.55;;;;;;;4.57;72.60;92827.17;1844291;77;21139;-83
2021/04/15 08:40:42;;;;;;;1.42;1.15;;;;;;;4.54;71.35;92828.68;1843739;77;21171;-78
2021/04/15 08:43:28;;;;;;;1.27;0.90;;;;;;;4.42;68.46;92828.19;1837970;77;21277;-77
2021/04/15 08:46:15;;;;;;;0.88;0.80;;;;;;;4.04;70.56;92832.23;1832636;78;21183;-80
2021/04/15 08:49:14;;;;;;;1.25;0.90;;;;;;;4.04;70.56;92832.23;1832386;78;21165;-82
2021/04/15 08:52:28;;;;;;;1.45;1.35;;;;;;;3.98;70.83;92834.26;1832495;77;21057;-78
2021/04/15 08:55:39;;;;;;;1.35;1.20;;;;;;;3.88;70.87;92835.13;1832922;78;21105;-79
2021/04/15 08:58:49;;;;;;;2.77;1.82;;;;;;;3.82;71.84;92839.27;1832143;77;21072;-80
2021/04/15 09:01:24;;;;;;;2.10;1.87;;;;;;;3.79;72.47;92838.66;1832727;77;21178;-83
2021/04/15 09:04:38;;;;;;;1.22;1.12;;;;;;;3.77;71.98;92842.87;1833093;77;21167;-82
2021/04/15 09:07:27;;;;;;;1.17;0.98;;;;;;;3.77;71.59;92842.30;1832868;77;21124;-80
2021/04/15 09:10:10;;;;;;;1.25;0.90;;;;;;;3.79;72.78;92844.03;1831936;78;21161;-79
2021/04/15 09:12:59;;;;;;;1.20;1.00;;;;;;;3.85;72.71;92841.81;1832144;77;21627;-85
2021/04/15 09:15:41;;;;;;;1.25;1.15;;;;;;;3.87;71.88;92844.34;1832826;77;21100;-79
2021/04/15 09:18:22;;;;;;;2.02;1.27;;;;;;;3.89;72.09;92846.08;1787179;78;21168;-78
2021/04/15 09:21:23;;;;;;;1.65;1.10;;;;;;;3.92;72.54;92840.55;1773044;80;21203;-79
2021/04/15 09:24:04;;;;;;;2.12;1.70;;;;;;;4.00;73.76;92836.02;1819196;78;21128;-80
2021/04/15 09:27:15;;;;;;;10.80;6.45;;;;;;;4.13;72.76;92837.30;1813811;79;21035;-80
2021/04/15 09:29:54;;;;;;;3.37;2.55;;;;;;;4.22;73.07;92837.03;1841598;78;21064;-79
2021/04/15 09:32:32;;;;;;;1.92;1.65;;;;;;;4.32;73.20;92841.16;1792634;79;21124;-84
2021/04/15 09:35:20;;;;;;;1.77;1.27;;;;;;;4.43;72.69;92835.88;1832105;77;21099;-82
2021/04/15 09:38:17;;;;;;;1.15;1.05;;;;;;;4.52;71.10;92842.33;1823520;78;21118;-81
2021/04/15 09:41:18;;;;;;;1.32;1.10;;;;;;;4.60;71.04;92839.33;1834265;78;21187;-81
2021/04/15 09:43:57;;;;;;;1.52;1.20;;;;;;;4.62;70.22;92837.02;1807394;78;21210;-81
2021/04/15 09:46:33;;;;;;;2.45;1.55;;;;;;;4.69;70.35;92842.28;1800782;78;21178;-80
2021/04/15 09:49:21;;;;;;;1.05;0.90;;;;;;;4.79;70.08;92837.56;1793934;77;21106;-81
2021/04/15 09:52:18;;;;;;;2.30;1.90;;;;;;;4.91;70.74;92839.19;1847462;77;21550;-83
2021/04/15 09:55:15;;;;;;;1.30;1.02;;;;;;;4.96;70.88;92829.41;1846878;77;21617;-83
2021/04/15 09:58:21;;;;;;;2.72;1.37;;;;;;;5.09;71.50;92833.37;1846824;77;21163;-79
2021/04/15 10:00:53;;;;;;;1.15;1.05;;;;;;;5.19;71.02;92837.27;1847113;77;21045;-81
2021/04/15 10:03:38;;;;;;;1.40;1.30;;;;;;;5.27;69.62;92832.92;1847386;77;21067;-80
2021/04/15 10:06:28;;;;;;;0.85;0.85;;;;;;;5.31;69.39;92828.90;1743215;82;21120;-78
2021/04/15 10:09:21;;;;;;;1.72;1.35;;;;;;;5.31;68.84;92832.36;1831345;77;21190;-80
2021/04/15 10:12:07;;;;;;;1.30;1.20;;;;;;;5.31;68.68;92835.06;1825834;78;21480;-83
2021/04/15 10:15:00;;;;;;;1.57;1.22;;;;;;;5.31;68.45;92839.11;1874195;76;21173;-83
2021/04/15 10:17:51;;;;;;;2.70;2.10;;;;;;;5.28;68.23;92839.08;1849573;76;21104;-80
2021/04/15 10:21:10;;;;;;;2.10;1.40;;;;;;;5.26;68.92;92839.44;1832644;77;21590;-77
2021/04/15 10:24:06;;;;;;;1.12;0.80;;;;;;;5.20;67.45;92843.65;1830610;78;22062;-79
2021/04/15 10:26:59;;;;;;;0.65;0.65;;;;;;;5.03;67.85;92841.59;1830351;78;21199;-81
2021/04/15 10:30:07;;;;;;;0.60;0.60;;;;;;;4.85;66.58;92840.89;1830427;78;21180;-82
2021/04/15 10:32:58;;;;;;;0.68;0.57;;;;;;;4.71;65.62;92845.39;1840441;77;21143;-78
2021/04/15 10:36:05;;;;;;;1.85;1.00;;;;;;;4.51;67.12;92840.77;1844159;77;21120;-80
2021/04/15 10:38:58;;;;;;;0.50;0.50;;;;;;;4.47;68.22;92848.03;1831335;77;22476;-81
2021/04/15 10:42:11;;;;;;;0.65;0.50;;;;;;;4.53;67.80;92841.17;1866438;76;21131;-84
2021/04/15 10:45:06;;;;;;;0.82;0.80;;;;;;;4.59;68.38;92841.82;1827439;75;21082;-81
2021/04/15 10:48:03;;;;;;;0.45;0.45;;;;;;;4.60;68.69;92836.63;1821361;78;21033;-79
2021/04/15 10:50:58;;;;;;;0.70;0.68;;;;;;;4.74;68.89;92850.80;1814099;78;21622;-80
2021/04/15 10:53:49;;;;;;;0.82;0.82;;;;;;;4.80;67.85;92845.26;1791978;79;21346;-82
2021/04/15 10:56:30;;;;;;;0.98;0.88;;;;;;;4.82;68.64;92847.59;1802119;78;21465;-78
2021/04/15 10:59:14;;;;;;;0.80;0.80;;;;;;;4.83;69.09;92846.45;1856734;77;21103;-84
2021/04/15 11:01:48;;;;;;;0.95;0.80;;;;;;;4.86;69.41;92847.05;1846610;77;21162;-81
2021/04/15 11:04:24;;;;;;;0.82;0.55;;;;;;;4.91;69.52;92853.44;1810464;77;21163;-82
2021/04/15 11:06:58;;;;;;;0.70;0.60;;;;;;;4.93;69.63;92844.97;1843801;77;21192;-80
2021/04/15 11:09:33;;;;;;;0.70;0.70;;;;;;;4.94;69.76;92854.62;1826161;77;21220;-84
2021/04/15 11:12:17;;;;;;;0.80;0.55;;;;;;;4.94;68.73;92850.58;1835635;78;21065;-83
2021/04/15 11:15:01;;;;;;;0.90;0.53;;;;;;;4.93;69.28;92853.05;1830003;78;21116;-84
2021/04/15 11:17:38;;;;;;;1.35;0.60;;;;;;;4.89;69.41;92854.39;1833392;78;21598;-80
2021/04/15 11:20:23;;;;;;;0.60;0.60;;;;;;;4.90;68.57;92851.89;1832928;77;21393;-81
2021/04/15 11:23:05;;;;;;;0.90;0.90;;;;;;;4.88;68.83;92847.44;1834194;78;21057;-82
2021/04/15 11:25:50;;;;;;;1.60;1.17;;;;;;;4.88;68.21;92855.52;1829002;78;21080;-80
2021/04/15 11:28:25;;;;;;;1.15;0.90;;;;;;;4.83;68.65;92847.22;1724860;79;21128;-81
2021/04/15 11:30:57;;;;;;;1.20;0.95;;;;;;;4.81;69.52;92853.56;1828219;78;21041;-83
2021/04/15 11:33:50;;;;;;;1.35;1.20;;;;;;;4.81;68.77;92852.77;1833757;78;21196;-76
2021/04/15 11:36:31;;;;;;;2.12;1.00;;;;;;;4.79;69.87;92856.42;1830161;78;21104;-78
2021/04/15 11:39:21;;;;;;;0.88;0.80;;;;;;;4.79;69.87;92856.42;1838063;78;21097;-79
2021/04/15 11:42:03;;;;;;;0.88;0.82;;;;;;;4.84;68.77;92853.38;1834669;77;21049;-80
2021/04/15 11:44:55;;;;;;;1.70;1.20;;;;;;;4.90;68.99;92844.39;1834867;77;21245;-78
2021/04/15 11:47:29;;;;;;;1.57;1.37;;;;;;;4.99;69.37;92849.64;1811229;78;21811;-82
2021/04/15 11:50:25;;;;;;;1.50;1.40;;;;;;;5.04;69.54;92858.75;1831760;77;21109;-82
2021/04/15 11:52:59;;;;;;;1.50;1.40;;;;;;;5.06;68.64;92853.74;1764582;78;21577;-79
2021/04/15 11:55:30;;;;;;;1.35;1.25;;;;;;;5.05;68.20;92854.90;1838852;77;21195;-84
2021/04/15 11:58:02;;;;;;;1.15;1.00;;;;;;;5.08;66.89;92853.39;1844386;77;21104;-81
2021/04/15 12:00:38;;;;;;;1.47;1.37;;;;;;;5.02;66.36;92856.98;1839448;77;21248;-77
2021/04/15 12:03:20;;;;;;;1.30;1.20;;;;;;;4.93;66.84;92855.20;1843100;77;21483;-80
2021/04/15 12:05:48;;;;;;;1.40;1.02;;;;;;;4.83;67.24;92852.60;1841191;77;21543;-83
2021/04/15 12:08:25;;;;;;;1.40;1.10;;;;;;;4.74;68.05;92866.97;1841077;77;21613;-79
2021/04/15 12:11:07;;;;;;;3.05;1.80;;;;;;;4.42;68.53;92860.49;1843079;77;21159;-79
2021/04/15 12:13:46;;;;;;;1.10;1.00;;;;;;;4.42;68.53;92860.49;1839079;77;21462;-80
2021/04/15 12:16:24;;;;;;;1.22;1.10;;;;;;;4.32;69.63;92860.00;1844174;77;21143;-82
2021/04/15 12:19:18;;;;;;;1.05;0.95;;;;;;;4.27;69.21;92856.30;1771561;81;21108;-80
2021/04/15 12:22:13;;;;;;;1.42;1.32;;;;;;;4.27;69.21;92856.30;1837495;78;21176;-82
2021/04/15 12:24:53;;;;;;;1.22;1.20;;;;;;;4.24;70.83;92862.99;1842015;77;21060;-83
2021/04/15 12:27:28;;;;;;;1.00;0.98;;;;;;;4.28;70.72;92857.07;1839691;77;22338;-80
2021/04/15 12:30:31;;;;;;;1.47;1.10;;;;;;;4.30;71.18;92855.57;1842046;77;21135;-82
2021/04/15 12:33:24;;;;;;;0.80;0.78;;;;;;;4.34;71.11;92858.30;1840749;77;21136;-77
2021/04/15 12:36:20;;;;;;;1.15;1.12;;;;;;;4.35;71.23;92854.45;1841817;77;21551;-79
2021/04/15 12:39:04;;;;;;;0.93;0.93;;;;;;;4.33;71.99;92851.37;1825640;77;21084;-83
2021/04/15 12:41:33;;;;;;;;;;;;;;;4.29;71.21;92862.11;1843643;77;21064;-80
2021/04/15 12:44:09;;;;;;;1.25;1.15;;;;;;;4.32;71.20;92852.50;1843210;77;20230;-84
2021/04/15 12:46:38;;;;;;;1.40;1.30;;;;;;;4.35;70.53;92857.15;1838771;77;21539;-86
2021/04/15 12:49:09;;;;;;;1.27;1.17;;;;;;;4.42;71.06;92851.84;1772771;77;21558;-78
2021/04/15 12:51:52;;;;;;;1.47;1.37;;;;;;;4.50;70.71;92861.53;1839796;77;21563;-82